Time;durP1;ratioP1;P1;durP2;ratioP2;P2;SDS_P1;SDS_P2;PMS_P1;PMS_P2;Temp;Humidity;BMP_temperature;BMP_pressure;BME280_temperature;BME280_humidity;BME280_pressure;Samples;Min_cycle;Max_cycle;Signal;HPM_P1;HPM_P2
2022/03/14 00:02:32;;;;;;;9.10;4.70;;;;;;;0.56;56.51;101977.41;31493545;28;20090;-77
2022/03/14 00:17:34;;;;;;;9.57;5.17;;;;;;;0.59;56.08;101976.81;31494292;28;20412;-77
2022/03/14 00:32:37;;;;;;;12.23;4.13;;;;;;;0.54;54.64;101960.91;31482427;28;20048;-77
2022/03/14 00:47:39;;;;;;;8.47;4.00;;;;;;;0.64;55.16;101964.13;31488374;28;20052;-77
2022/03/14 01:02:41;;;;;;;8.03;4.00;;;;;;;0.75;54.74;101980.69;31483946;28;20053;-77
2022/03/14 01:17:44;;;;;;;9.03;4.90;;;;;;;0.19;57.49;102000.75;31475997;28;20084;-77
2022/03/14 01:32:47;;;;;;;8.73;4.00;;;;;;;0.04;59.50;102009.06;31489251;28;20098;-77
2022/03/14 01:47:50;;;;;;;7.27;3.33;;;;;;;-0.09;60.32;102009.91;31504537;28;20131;-76
2022/03/14 02:02:52;;;;;;;8.43;3.67;;;;;;;0.02;60.14;102021.94;31503247;28;20044;-76
2022/03/14 02:17:55;;;;;;;6.57;4.20;;;;;;;0.09;59.97;102026.88;31505704;28;20052;-77
2022/03/14 02:32:58;;;;;;;11.83;4.13;;;;;;;0.27;59.28;102015.25;31500955;28;20131;-77
2022/03/14 02:48:00;;;;;;;6.87;4.20;;;;;;;0.38;58.87;102024.63;31479601;28;20057;-77
2022/03/14 03:03:05;;;;;;;8.50;4.60;;;;;;;0.43;57.78;102031.72;31498351;28;20098;-77
2022/03/14 03:18:13;;;;;;;10.70;4.57;;;;;;;0.36;57.38;102026.00;31516794;28;20056;-77
2022/03/14 03:33:15;;;;;;;10.67;5.57;;;;;;;0.47;57.33;102032.72;31497457;28;20416;-77
2022/03/14 03:48:18;;;;;;;10.63;5.30;;;;;;;0.07;59.14;102045.88;31493342;28;20056;-77
2022/03/14 04:03:20;;;;;;;11.23;5.00;;;;;;;0.24;59.39;102043.34;31492262;28;20044;-76
2022/03/14 04:18:24;;;;;;;12.03;5.40;;;;;;;0.17;59.47;102039.53;31494449;28;20095;-77
2022/03/14 04:33:26;;;;;;;11.40;5.90;;;;;;;0.37;59.33;102059.66;31465648;28;20460;-76
2022/03/14 04:48:29;;;;;;;11.97;5.77;;;;;;;0.26;60.24;102067.88;31477909;28;20059;-77
2022/03/14 05:03:31;;;;;;;10.70;5.90;;;;;;;0.13;62.53;102087.41;31500744;28;20049;-77
2022/03/14 05:18:34;;;;;;;14.33;6.37;;;;;;;0.17;63.18;102095.63;31482335;28;20052;-77
2022/03/14 05:33:37;;;;;;;14.70;7.33;;;;;;;0.32;66.01;102098.75;31481808;28;20500;-77
2022/03/14 05:48:39;;;;;;;15.47;7.57;;;;;;;0.47;66.47;102104.84;31485165;28;20052;-76
2022/03/14 06:03:41;;;;;;;14.47;6.97;;;;;;;0.91;67.50;102096.88;31488589;28;20685;-77
2022/03/14 06:18:43;;;;;;;16.00;8.23;;;;;;;1.27;66.98;102099.44;31487811;28;20041;-77
2022/03/14 06:33:45;;;;;;;21.97;9.40;;;;;;;1.35;66.94;102116.66;31507284;28;20049;-77
2022/03/14 06:48:47;;;;;;;19.37;9.40;;;;;;;1.73;66.92;102110.81;31498596;28;20455;-76
2022/03/14 07:03:50;;;;;;;18.33;8.13;;;;;;;1.82;65.39;102120.47;31495601;28;20090;-77
2022/03/14 07:18:52;;;;;;;14.77;7.23;;;;;;;1.80;66.44;102114.66;31507571;28;20044;-77
2022/03/14 07:33:54;;;;;;;15.00;7.10;;;;;;;2.17;64.92;102110.63;31501827;28;20056;-77
2022/03/14 07:48:56;;;;;;;8.03;4.90;;;;;;;2.20;60.54;102112.69;31492376;28;20051;-77
2022/03/14 08:03:59;;;;;;;10.97;4.73;;;;;;;2.23;59.23;102125.47;31484667;28;20074;-78
2022/03/14 08:19:01;;;;;;;8.30;4.77;;;;;;;2.43;57.14;102139.38;31500597;28;20072;-77
2022/03/14 08:34:06;;;;;;;6.63;4.03;;;;;;;2.74;55.41;102134.69;31483197;28;20087;-79
2022/03/14 08:49:08;;;;;;;12.67;6.00;;;;;;;2.55;54.86;102126.16;31504760;28;20048;-77
2022/03/14 09:04:10;;;;;;;6.60;3.70;;;;;;;2.43;54.62;102117.94;31501607;28;20060;-82
2022/03/14 09:19:13;;;;;;;9.40;3.70;;;;;;;2.48;54.86;102105.16;31486799;28;20084;-80
2022/03/14 09:34:15;;;;;;;10.37;3.87;;;;;;;2.61;56.36;102098.06;31510281;28;20507;-81
2022/03/14 09:49:19;;;;;;;4.47;2.60;;;;;;;2.47;55.03;102092.06;31495975;28;20138;-78
2022/03/14 10:04:22;;;;;;;4.00;2.40;;;;;;;2.61;54.44;102090.81;31517672;28;20056;-83
2022/03/14 10:19:33;;;;;;;4.07;2.80;;;;;;;3.00;51.53;102072.97;31518537;28;20084;-82
2022/03/14 10:34:51;;;;;;;6.30;3.47;;;;;;;3.14;51.13;102056.66;31532137;28;20045;-77
2022/03/14 10:49:54;;;;;;;8.17;3.37;;;;;;;4.80;46.76;102021.91;31524908;28;20062;-78
2022/03/14 11:05:05;;;;;;;12.20;3.60;;;;;;;4.49;47.23;102018.91;31493342;28;20485;-79
2022/03/14 11:20:08;;;;;;;7.23;3.60;;;;;;;3.80;48.15;102009.44;31489128;28;20139;-75
2022/03/14 11:35:11;;;;;;;10.97;4.20;;;;;;;3.81;48.25;102002.16;31484263;28;20055;-74
2022/03/14 11:50:15;;;;;;;12.47;3.53;;;;;;;3.93;48.00;102010.31;31491176;28;20424;-74
2022/03/14 12:05:41;;;;;;;8.40;3.77;;;;;;;3.28;49.33;102004.38;31497175;28;20056;-74
2022/03/14 12:20:43;;;;;;;6.40;4.03;;;;;;;3.18;50.95;102003.91;31484379;28;20500;-75
2022/03/14 12:35:45;;;;;;;9.23;4.67;;;;;;;2.89;51.65;101992.00;31488333;28;20044;-74
2022/03/14 12:50:50;;;;;;;9.73;5.60;;;;;;;2.60;52.69;101997.31;31464742;28;20048;-80
2022/03/14 13:05:53;;;;;;;10.43;5.37;;;;;;;2.58;52.84;101984.22;31501506;28;20056;-84
2022/03/14 13:20:55;;;;;;;10.47;5.77;;;;;;;2.67;52.28;101979.59;31499288;28;20057;-76
2022/03/14 13:36:03;;;;;;;7.47;6.00;;;;;;;2.30;53.73;101977.63;31478326;28;20052;-76
2022/03/14 13:51:10;;;;;;;9.70;5.33;;;;;;;2.18;53.93;101969.41;31474067;28;20048;-79
2022/03/14 14:06:17;;;;;;;22.87;5.40;;;;;;;2.07;55.50;101966.28;31473709;28;20059;-77
2022/03/14 14:21:23;;;;;;;10.13;5.53;;;;;;;1.96;56.93;101975.72;31476255;28;20048;-78
2022/03/14 14:36:28;;;;;;;11.97;6.20;;;;;;;1.78;57.76;101968.78;31480287;28;20055;-76
2022/03/14 14:51:35;;;;;;;10.83;6.03;;;;;;;1.82;57.86;101965.16;31512353;28;20044;-76
2022/03/14 15:06:42;;;;;;;27.83;7.00;;;;;;;1.61;59.40;101970.31;31488207;28;20060;-75
2022/03/14 15:21:45;;;;;;;12.83;6.50;;;;;;;1.57;60.12;101979.28;31497981;28;20504;-76
2022/03/14 15:36:49;;;;;;;15.33;7.20;;;;;;;1.51;61.77;101981.31;31507539;28;20045;-75
2022/03/14 15:51:52;;;;;;;16.40;8.03;;;;;;;1.41;61.90;101976.25;31481348;28;20072;-84
2022/03/14 16:06:55;;;;;;;15.00;8.00;;;;;;;1.38;62.90;101976.88;31509257;28;20500;-83
2022/03/14 16:21:58;;;;;;;21.90;9.87;;;;;;;1.45;63.26;101984.44;31507381;28;20049;-78
2022/03/14 16:37:01;;;;;;;20.30;9.23;;;;;;;1.36;64.75;101982.53;31474030;28;20033;-79
2022/03/14 16:52:07;;;;;;;19.23;7.97;;;;;;;1.29;65.60;101984.88;31495619;28;20079;-79
2022/03/14 17:07:11;;;;;;;21.80;7.73;;;;;;;1.18;65.50;101980.13;31488525;28;20044;-77
2022/03/14 17:22:15;;;;;;;11.57;6.47;;;;;;;1.14;66.16;101963.09;31494871;28;20086;-77
2022/03/14 17:37:18;;;;;;;12.97;6.70;;;;;;;0.99;66.74;101958.94;31499342;28;20385;-78
2022/03/14 17:52:24;;;;;;;12.83;7.10;;;;;;;0.98;65.99;101963.50;31486426;28;20049;-78
2022/03/14 18:07:28;;;;;;;11.17;6.10;;;;;;;0.90;66.38;101958.91;31480952;28;20413;-79
2022/03/14 18:22:32;;;;;;;13.57;6.67;;;;;;;0.73;67.13;101961.47;31502826;28;20099;-80
2022/03/14 18:37:35;;;;;;;24.93;12.47;;;;;;;0.73;68.41;101956.13;31517316;28;20048;-80
2022/03/14 18:52:38;;;;;;;14.57;7.47;;;;;;;0.72;68.24;101948.41;31496992;28;20078;-79
2022/03/14 19:07:41;;;;;;;21.10;8.30;;;;;;;0.86;68.42;101936.56;31496909;28;20094;-79
2022/03/14 19:22:44;;;;;;;15.77;6.97;;;;;;;0.85;68.98;101936.84;31500473;28;20053;-78
2022/03/14 19:37:48;;;;;;;27.10;10.53;;;;;;;0.93;69.70;101938.78;31487107;28;20368;-79
2022/03/14 19:52:51;;;;;;;15.17;7.23;;;;;;;0.80;70.42;101935.09;31489601;28;20051;-79
2022/03/14 20:07:53;;;;;;;16.33;7.03;;;;;;;0.92;70.21;101929.97;31490892;28;20083;-78
2022/03/14 20:22:55;;;;;;;13.03;7.10;;;;;;;0.84;70.95;101925.38;31491209;28;20048;-77
2022/03/14 20:37:58;;;;;;;17.10;7.97;;;;;;;1.06;71.04;101910.34;31491796;28;20043;-78
2022/03/14 20:53:00;;;;;;;15.00;7.83;;;;;;;0.94;71.56;101902.94;31488104;28;20067;-78
2022/03/14 21:08:03;;;;;;;14.07;7.77;;;;;;;1.01;70.92;101905.94;31481261;28;20048;-76
2022/03/14 21:23:05;;;;;;;14.83;7.47;;;;;;;0.90;71.40;101892.06;31478787;28;20055;-78
2022/03/14 21:38:08;;;;;;;12.63;6.87;;;;;;;1.00;70.79;101883.75;31480301;28;20126;-77
2022/03/14 21:53:11;;;;;;;14.67;7.77;;;;;;;1.05;70.62;101882.03;31478913;28;20440;-78
2022/03/14 22:08:15;;;;;;;18.33;8.50;;;;;;;1.22;70.27;101863.34;31503285;28;20048;-77
2022/03/14 22:23:18;;;;;;;17.53;8.27;;;;;;;1.24;70.18;101864.59;31506547;28;20053;-78
2022/03/14 22:38:20;;;;;;;20.87;9.80;;;;;;;1.34;69.82;101842.13;31504064;28;20045;-77
2022/03/14 22:53:23;;;;;;;22.10;9.07;;;;;;;1.42;70.38;101827.94;31510319;28;20048;-79
2022/03/14 23:08:27;;;;;;;23.13;10.53;;;;;;;1.35;70.66;101822.28;31495976;28;20064;-77
2022/03/14 23:23:30;;;;;;;18.57;9.20;;;;;;;1.33;71.06;101793.16;31488582;28;20040;-78
2022/03/14 23:38:32;;;;;;;21.03;9.33;;;;;;;1.22;71.83;101786.53;31489415;28;20481;-78
2022/03/14 23:53:34;;;;;;;22.10;9.50;;;;;;;1.19;71.85;101756.94;31510117;28;20404;-77
